^^
Datos históricos de la estación: Murcia-Puente Tocinos
 
Diario Informe para Febrero 20, 2018 Unidades:  Métrico    Inglés   Ambas
Diario Semanal Mensual Anual Configurable
  Actual: Máximo: Mínimo: Media:
Temperatura: 9.4 °C 10.9 °C 9.4 °C 10.1 °C
Punto de rocio: 7.2 °C 8.7 °C 7.2 °C 8 °C
Humedad: 86% 88% 85% 87%
Velocidad viento: 4.7km/h 8.4km/h 2.9km/h 6km/h
Racha viento: 9.3km/h 13.0km/h - -
VientoSSE - - SW
Presión: 1013.8 hPa 1015.1 hPa 1013.8 hPa -
Precipitación: 0.0 mm      
Historical Graphs
 
 
Tabla de datos para Febrero 20, 2018
Hora Temperatura Punto de rocio Presión Viento Velocidad viento Racha viento Humedad Intensidad lluvia(por hora) Nubes
00:57 10.7 °C 8.4 °C 1014.8 hPa South 3.2 km/h 3.7 km/h 86% 0.0 mm CLR
01:02 10.6 °C 8.5 °C 1014.8 hPa NW 3.2 km/h 7.4 km/h 87% 0.0 mm CLR
01:07 10.6 °C 8.5 °C 1014.8 hPa WSW 2.9 km/h 3.9 km/h 87% 0.0 mm RA
01:12 10.6 °C 8.5 °C 1014.8 hPa WSW 2.9 km/h 5.6 km/h 87% 0.0 mm RA
01:17 10.8 °C 8.7 °C 1014.8 hPa WSW 2.9 km/h 7.4 km/h 87% 0.0 mm CLR
01:22 10.8 °C 8.7 °C 1014.8 hPa SW 2.9 km/h 9.3 km/h 87% 0.0 mm CLR
01:27 10.9 °C 8.7 °C 1014.8 hPa West 5.0 km/h 7.4 km/h 86% 0.0 mm CLR
01:32 10.8 °C 8.6 °C 1015.1 hPa WSW 5.0 km/h 7.4 km/h 86% 0.0 mm CLR
01:37 10.8 °C 8.6 °C 1015.1 hPa SSW 5.0 km/h 9.5 km/h 86% 0.0 mm CLR
01:42 10.8 °C 8.6 °C 1015.1 hPa South 5.0 km/h 9.3 km/h 86% 0.0 mm CLR
01:47 10.8 °C 8.6 °C 1014.8 hPa SSE 5.8 km/h 7.6 km/h 86% 0.0 mm CLR
01:52 10.6 °C 8.2 °C 1014.8 hPa SE 5.8 km/h 11.1 km/h 85% 0.0 mm CLR
01:57 10.2 °C 7.8 °C 1014.8 hPa SSE 6.9 km/h 13.0 km/h 85% 0.0 mm CLR
02:02 9.9 °C 7.7 °C 1014.4 hPa SSE 6.9 km/h 13.0 km/h 86% 0.0 mm CLR
02:07 9.8 °C 7.7 °C 1014.4 hPa SSE 8.4 km/h 8.4 km/h 87% 0.0 mm CLR
02:12 9.7 °C 7.8 °C 1014.4 hPa SSE 8.4 km/h 9.5 km/h 88% 0.0 mm CLR
02:17 9.7 °C 7.8 °C 1014.4 hPa SSW 6.9 km/h 8.7 km/h 88% 0.0 mm CLR
02:22 9.7 °C 7.8 °C 1014.4 hPa SSW 6.9 km/h 7.4 km/h 88% 0.0 mm CLR
02:27 9.8 °C 7.9 °C 1014.4 hPa SW 6.9 km/h 9.3 km/h 88% 0.0 mm CLR
02:32 9.9 °C 8.0 °C 1014.4 hPa SW 6.9 km/h 7.4 km/h 88% 0.0 mm CLR
02:37 10.0 °C 8.1 °C 1014.4 hPa SW 5.8 km/h 10.0 km/h 88% 0.0 mm CLR
02:43 10.1 °C 8.2 °C 1014.4 hPa WSW 5.8 km/h 7.4 km/h 88% 0.0 mm CLR
02:48 10.2 °C 8.1 °C 1014.1 hPa SW 5.8 km/h 9.3 km/h 87% 0.0 mm CLR
02:53 10.2 °C 8.1 °C 1014.1 hPa WSW 5.8 km/h 9.3 km/h 87% 0.0 mm CLR
02:58 10.2 °C 8.1 °C 1014.1 hPa West 6.4 km/h 9.3 km/h 87% 0.0 mm CLR
03:03 10.2 °C 8.1 °C 1014.1 hPa SW 6.4 km/h 9.3 km/h 87% 0.0 mm CLR
03:08 10.2 °C 8.1 °C 1014.1 hPa SW 6.9 km/h 11.1 km/h 87% 0.0 mm CLR
03:13 10.3 °C 8.2 °C 1014.1 hPa WSW 6.9 km/h 13.0 km/h 87% 0.0 mm CLR
03:18 10.2 °C 8.1 °C 1014.1 hPa SW 7.6 km/h 11.1 km/h 87% 0.0 mm CLR
03:23 10.3 °C 8.2 °C 1014.1 hPa SW 7.6 km/h 13.0 km/h 87% 0.0 mm CLR
03:28 10.2 °C 8.1 °C 1014.1 hPa SW 7.6 km/h 9.3 km/h 87% 0.0 mm CLR
03:33 10.2 °C 8.1 °C 1013.8 hPa West 7.6 km/h 11.1 km/h 87% 0.0 mm CLR
03:38 10.1 °C 8.1 °C 1013.8 hPa WSW 7.6 km/h 9.5 km/h 87% 0.0 mm CLR
03:43 10.0 °C 7.9 °C 1013.8 hPa West 7.6 km/h 9.3 km/h 87% 0.0 mm CLR
03:48 9.9 °C 7.8 °C 1013.8 hPa SW 6.4 km/h 8.4 km/h 87% 0.0 mm CLR
03:53 9.8 °C 7.7 °C 1013.8 hPa WSW 6.4 km/h 9.3 km/h 87% 0.0 mm CLR
03:58 9.8 °C 7.7 °C 1013.8 hPa WSW 5.8 km/h 7.4 km/h 87% 0.0 mm CLR
04:03 9.7 °C 7.7 °C 1013.8 hPa WSW 5.8 km/h 9.3 km/h 87% 0.0 mm CLR
04:08 9.7 °C 7.7 °C 1013.8 hPa SW 6.4 km/h 7.4 km/h 87% 0.0 mm CLR
04:13 9.7 °C 7.4 °C 1013.8 hPa WSW 6.4 km/h 7.4 km/h 86% 0.0 mm CLR
04:18 9.6 °C 7.4 °C 1013.8 hPa South 5.8 km/h 9.3 km/h 86% 0.0 mm CLR
04:23 9.6 °C 7.4 °C 1013.8 hPa South 5.8 km/h 13.0 km/h 86% 0.0 mm CLR
04:28 9.6 °C 7.4 °C 1013.8 hPa WSW 6.4 km/h 6.4 km/h 86% 0.0 mm CLR
04:33 9.5 °C 7.3 °C 1013.8 hPa South 6.4 km/h 6.4 km/h 86% 0.0 mm CLR
04:38 9.4 °C 7.2 °C 1013.8 hPa SSE 4.7 km/h 7.4 km/h 86% 0.0 mm CLR
04:43 9.4 °C 7.2 °C 1013.8 hPa SSE 4.7 km/h 9.3 km/h 86% 0.0 mm CLR
Murcia-Puente Tocinos, España
Compliments of Weather Underground - 1.5 mb

La estación de MeteoMurcia.com, publica sus datos en los siguientes proyectos:

Meteoclimatic www.awekas.at

W3Counter
Web Analytics